createdAt,value
2023-02-28T00:01:19.689Z,4.17
2023-02-28T00:03:46.760Z,3.63
2023-02-28T00:06:13.840Z,4.47
2023-02-28T00:08:40.946Z,4.50
2023-02-28T00:11:10.708Z,4.93
2023-02-28T00:13:40.303Z,4.63
2023-02-28T00:16:10.335Z,5.00
2023-02-28T00:18:38.019Z,4.60
2023-02-28T00:21:05.710Z,5.03
2023-02-28T00:23:33.047Z,4.60
2023-02-28T00:26:00.001Z,4.90
2023-02-28T00:28:26.966Z,4.57
2023-02-28T00:30:53.848Z,4.70
2023-02-28T00:33:20.822Z,4.73
2023-02-28T00:35:48.176Z,4.60
2023-02-28T00:38:15.573Z,4.83
2023-02-28T00:40:42.422Z,4.27
2023-02-28T00:43:09.598Z,4.67
2023-02-28T00:45:36.420Z,4.20
2023-02-28T00:48:04.264Z,4.07
2023-02-28T00:50:30.989Z,4.30
2023-02-28T00:52:57.944Z,4.30
2023-02-28T00:55:25.062Z,4.47
2023-02-28T00:57:51.988Z,4.10
2023-02-28T01:00:19.109Z,3.87
2023-02-28T01:02:45.773Z,4.10
2023-02-28T01:05:12.823Z,4.23
2023-02-28T01:07:39.610Z,4.40
2023-02-28T01:10:06.980Z,4.10
2023-02-28T01:12:33.983Z,4.07
2023-02-28T01:15:01.034Z,4.37
2023-02-28T01:17:28.343Z,4.23
2023-02-28T01:19:57.047Z,4.17
2023-02-28T01:22:23.960Z,4.13
2023-02-28T01:24:50.666Z,4.00
2023-02-28T01:27:17.494Z,4.70
2023-02-28T01:29:44.963Z,3.90
2023-02-28T01:32:12.368Z,4.17
2023-02-28T01:34:39.149Z,4.73
2023-02-28T01:37:06.188Z,4.27
2023-02-28T01:39:32.855Z,4.30
2023-02-28T01:41:59.665Z,4.07
2023-02-28T01:45:02.983Z,5.00
2023-02-28T01:47:41.368Z,4.47
2023-02-28T01:50:13.898Z,4.30
2023-02-28T01:52:41.707Z,4.50
2023-02-28T01:55:12.107Z,4.60
2023-02-28T01:57:47.103Z,4.63
2023-02-28T02:00:19.035Z,4.77
2023-02-28T02:02:50.429Z,5.20
2023-02-28T02:05:26.662Z,4.40
2023-02-28T02:08:07.477Z,4.27
2023-02-28T02:10:51.560Z,4.67
2023-02-28T02:13:35.855Z,4.53
2023-02-28T02:16:03.785Z,5.00
2023-02-28T02:18:38.617Z,5.00
2023-02-28T02:21:32.373Z,4.87
2023-02-28T02:24:17.063Z,5.00
2023-02-28T02:27:07.091Z,5.43
2023-02-28T02:30:05.935Z,4.90
2023-02-28T02:33:00.992Z,5.20
2023-02-28T02:35:48.135Z,5.53
2023-02-28T02:38:24.422Z,5.13
2023-02-28T02:41:03.884Z,5.37
2023-02-28T02:43:37.087Z,5.73
2023-02-28T02:46:11.718Z,5.27
2023-02-28T02:48:41.311Z,5.03
2023-02-28T02:51:15.258Z,5.40
2023-02-28T02:53:52.388Z,5.60
2023-02-28T02:56:26.352Z,5.70
2023-02-28T02:59:00.149Z,6.00
2023-02-28T03:01:29.658Z,5.30
2023-02-28T03:04:04.384Z,5.67
2023-02-28T03:06:31.268Z,5.40
2023-02-28T03:08:57.938Z,5.40
2023-02-28T03:11:25.086Z,5.83
2023-02-28T03:14:11.010Z,5.57
2023-02-28T03:16:56.552Z,5.87
2023-02-28T03:19:46.551Z,5.63
2023-02-28T03:22:44.791Z,5.73
2023-02-28T03:25:29.224Z,5.40
2023-02-28T03:28:19.201Z,5.67
2023-02-28T03:31:01.982Z,6.03
2023-02-28T03:33:35.723Z,5.93
2023-02-28T03:36:19.436Z,5.50
2023-02-28T03:39:03.695Z,5.43
2023-02-28T03:41:54.394Z,5.80
2023-02-28T03:44:38.876Z,6.47
2023-02-28T03:47:10.738Z,5.70
2023-02-28T03:49:46.921Z,5.90
2023-02-28T03:52:14.067Z,6.03
2023-02-28T03:54:46.336Z,5.83
2023-02-28T03:57:28.517Z,5.50
2023-02-28T04:00:05.176Z,5.40
2023-02-28T04:02:32.942Z,5.57
2023-02-28T04:05:01.383Z,5.93
2023-02-28T04:07:31.852Z,5.33
2023-02-28T04:09:58.964Z,5.60
2023-02-28T04:12:26.231Z,5.87
2023-02-28T04:14:53.261Z,6.10
2023-02-28T04:17:20.082Z,5.30
2023-02-28T04:19:47.447Z,5.77
2023-02-28T04:22:14.693Z,5.33
2023-02-28T04:24:42.585Z,5.57
2023-02-28T04:27:11.316Z,6.17
2023-02-28T04:29:38.168Z,5.70
2023-02-28T04:32:05.924Z,5.97
2023-02-28T04:34:33.879Z,5.77
2023-02-28T04:37:16.986Z,5.53
2023-02-28T04:39:44.753Z,6.27
2023-02-28T04:42:13.510Z,6.07
2023-02-28T04:44:40.536Z,5.83
2023-02-28T04:47:07.695Z,5.40
2023-02-28T04:49:34.748Z,5.90
2023-02-28T04:52:01.628Z,5.73
2023-02-28T04:54:29.419Z,5.40
2023-02-28T04:56:57.308Z,5.60
2023-02-28T04:59:24.052Z,5.77
2023-02-28T05:01:51.105Z,5.60
2023-02-28T05:04:18.309Z,5.23
2023-02-28T05:06:46.444Z,5.30
2023-02-28T05:09:14.980Z,5.17
2023-02-28T05:11:55.877Z,4.57
2023-02-28T05:14:38.739Z,4.70
2023-02-28T05:17:06.898Z,5.10
2023-02-28T05:19:33.969Z,4.80
2023-02-28T05:22:01.350Z,4.67
2023-02-28T05:24:28.215Z,4.87
2023-02-28T05:26:55.937Z,5.03
2023-02-28T05:29:23.332Z,4.57
2023-02-28T05:31:50.673Z,4.67
2023-02-28T05:34:17.498Z,5.50
2023-02-28T05:36:45.273Z,5.40
2023-02-28T05:39:14.827Z,5.20
2023-02-28T05:41:43.163Z,5.43
2023-02-28T05:44:10.772Z,5.37
2023-02-28T05:46:37.481Z,4.97
2023-02-28T05:49:04.587Z,5.37
2023-02-28T05:51:31.690Z,5.67
2023-02-28T05:54:02.997Z,5.47
2023-02-28T05:56:30.035Z,5.53
2023-02-28T05:58:57.012Z,5.43
2023-02-28T06:01:41.781Z,4.43
2023-02-28T06:04:22.244Z,3.50
2023-02-28T06:06:50.203Z,3.63
2023-02-28T06:09:17.536Z,4.73
2023-02-28T06:11:44.570Z,5.00
2023-02-28T06:14:18.718Z,5.10
2023-02-28T06:16:45.611Z,4.70
2023-02-28T06:19:12.377Z,5.07
2023-02-28T06:21:39.330Z,4.77
2023-02-28T06:24:06.465Z,5.37
2023-02-28T06:26:33.932Z,5.80
2023-02-28T06:29:54.085Z,5.63
2023-02-28T06:32:21.330Z,5.90
2023-02-28T06:34:48.833Z,5.97
2023-02-28T06:37:16.159Z,7.33
2023-02-28T06:39:43.088Z,6.57
2023-02-28T06:42:10.014Z,7.13
2023-02-28T06:44:37.721Z,6.90
2023-02-28T06:47:08.910Z,6.73
2023-02-28T06:49:38.180Z,6.63
2023-02-28T06:52:06.712Z,6.07
2023-02-28T06:54:34.655Z,6.87
2023-02-28T06:57:02.076Z,6.87
2023-02-28T06:59:28.919Z,7.13
2023-02-28T07:01:56.182Z,6.77
2023-02-28T07:04:24.436Z,6.57
2023-02-28T07:06:51.758Z,6.87
2023-02-28T07:09:21.117Z,6.90
2023-02-28T07:11:48.707Z,6.90
2023-02-28T07:14:15.453Z,6.53
2023-02-28T07:16:46.456Z,7.00
2023-02-28T07:19:13.165Z,6.67
2023-02-28T07:21:41.777Z,6.77
2023-02-28T07:24:08.680Z,6.30
2023-02-28T07:26:35.442Z,6.33
2023-02-28T07:29:03.293Z,6.53
2023-02-28T07:31:31.202Z,6.33
2023-02-28T07:33:59.468Z,6.07
2023-02-28T07:36:28.156Z,6.93
2023-02-28T07:38:54.970Z,7.10
2023-02-28T07:41:25.059Z,5.93
2023-02-28T07:43:55.922Z,6.00
2023-02-28T07:46:23.904Z,6.13
2023-02-28T07:48:51.535Z,4.90
2023-02-28T07:51:18.460Z,4.87
2023-02-28T07:53:48.637Z,4.27
2023-02-28T08:00:33.922Z,3.77
2023-02-28T08:03:00.950Z,3.30
2023-02-28T08:05:27.899Z,3.73
2023-02-28T08:13:06.741Z,2.80
2023-02-28T08:15:33.555Z,2.80
2023-02-28T08:18:00.298Z,2.87
2023-02-28T08:20:28.664Z,2.47
2023-02-28T08:22:55.478Z,2.27
2023-02-28T08:25:22.672Z,2.50
2023-02-28T08:27:53.137Z,2.30
2023-02-28T08:30:20.722Z,2.70
2023-02-28T08:32:47.422Z,2.03
2023-02-28T08:35:17.168Z,2.60
2023-02-28T08:37:43.805Z,2.00
2023-02-28T08:40:11.171Z,1.70
2023-02-28T08:42:38.028Z,1.77
2023-02-28T08:45:05.405Z,1.67
2023-02-28T08:47:32.069Z,2.50
2023-02-28T08:49:58.642Z,1.90
2023-02-28T08:52:25.422Z,1.70
2023-02-28T08:54:52.238Z,1.90
2023-02-28T08:57:18.978Z,1.60
2023-02-28T08:59:46.479Z,1.43
2023-02-28T09:02:15.486Z,1.10
2023-02-28T09:04:43.202Z,1.40
2023-02-28T09:07:09.962Z,0.90
2023-02-28T09:09:37.305Z,0.80
2023-02-28T09:12:05.164Z,0.82
2023-02-28T09:14:31.892Z,1.30
2023-02-28T09:16:59.340Z,0.98
2023-02-28T09:19:26.046Z,1.10
2023-02-28T09:21:53.868Z,0.82
2023-02-28T09:24:21.638Z,1.30
2023-02-28T09:27:03.868Z,1.10
2023-02-28T09:29:32.478Z,1.30
2023-02-28T09:31:59.873Z,0.82
2023-02-28T09:34:28.342Z,1.20
2023-02-28T09:36:55.774Z,1.77
2023-02-28T09:39:23.476Z,1.30
2023-02-28T09:41:53.625Z,1.00
2023-02-28T09:44:44.624Z,1.30
2023-02-28T09:47:41.629Z,0.70
2023-02-28T09:50:27.893Z,1.25
2023-02-28T09:52:56.874Z,1.60
2023-02-28T09:55:41.486Z,0.82
2023-02-28T09:58:55.944Z,0.50
2023-02-28T10:01:36.313Z,1.00
2023-02-28T10:04:34.494Z,0.90
2023-02-28T10:07:06.884Z,0.60
2023-02-28T10:09:36.912Z,0.77
2023-02-28T10:12:06.164Z,0.70
2023-02-28T10:14:35.463Z,0.65
2023-02-28T10:17:14.436Z,0.90
2023-02-28T10:19:50.267Z,0.80
2023-02-28T10:22:59.902Z,0.90
2023-02-28T10:25:30.625Z,0.73
2023-02-28T10:28:09.644Z,0.70
2023-02-28T10:30:41.097Z,0.90
2023-02-28T10:33:20.627Z,0.75
2023-02-28T10:35:49.447Z,1.00
2023-02-28T10:38:29.112Z,0.90
2023-02-28T10:41:11.092Z,1.08
2023-02-28T10:43:39.696Z,1.08
2023-02-28T10:46:09.628Z,1.20
2023-02-28T10:52:01.157Z,1.23
2023-02-28T10:54:39.026Z,1.40
2023-02-28T10:57:18.752Z,1.73
2023-02-28T10:59:45.909Z,1.40
2023-02-28T11:05:01.799Z,1.33
2023-02-28T11:10:26.460Z,1.50
2023-02-28T11:12:59.739Z,1.42
2023-02-28T11:16:01.028Z,1.10
2023-02-28T11:18:35.776Z,1.50
2023-02-28T11:21:04.810Z,1.65
2023-02-28T11:23:38.057Z,1.30
2023-02-28T11:26:06.226Z,1.40
2023-02-28T11:28:37.154Z,1.50
2023-02-28T11:31:23.387Z,1.33
2023-02-28T11:33:57.280Z,1.20
2023-02-28T11:36:27.920Z,1.33
2023-02-28T11:39:16.757Z,1.60
2023-02-28T11:42:09.286Z,1.50
2023-02-28T11:45:13.307Z,1.40
2023-02-28T11:47:50.847Z,1.50
2023-02-28T11:50:49.972Z,1.63
2023-02-28T11:53:44.390Z,1.40
2023-02-28T11:56:19.070Z,1.40
2023-02-28T11:58:52.346Z,1.17
2023-02-28T12:05:58.277Z,1.20
2023-02-28T12:11:58.756Z,1.35
2023-02-28T12:14:50.835Z,1.35
2023-02-28T12:17:26.613Z,1.10
2023-02-28T12:19:59.462Z,1.27
2023-02-28T12:22:51.178Z,1.45
2023-02-28T12:25:41.892Z,1.38
2023-02-28T12:28:12.726Z,1.00
2023-02-28T12:30:47.935Z,1.35
2023-02-28T12:33:18.807Z,1.60
2023-02-28T12:35:56.635Z,1.30
2023-02-28T12:38:25.437Z,1.30
2023-02-28T12:41:04.300Z,1.20
2023-02-28T12:43:41.697Z,0.95
2023-02-28T12:46:37.284Z,1.17
2023-02-28T12:49:13.383Z,1.20
2023-02-28T12:51:41.079Z,0.95
2023-02-28T12:54:32.627Z,4.30
2023-02-28T12:57:14.141Z,6.43
2023-02-28T12:59:51.877Z,2.67
2023-02-28T13:02:40.181Z,1.02
2023-02-28T13:05:20.776Z,1.10
2023-02-28T13:08:05.448Z,1.23
2023-02-28T13:10:55.646Z,0.88
2023-02-28T13:13:30.781Z,1.23
2023-02-28T13:16:03.633Z,1.30
2023-02-28T13:18:40.539Z,0.90
2023-02-28T13:21:29.327Z,1.35
2023-02-28T13:23:59.498Z,1.00
2023-02-28T13:26:38.984Z,0.95
2023-02-28T13:29:11.946Z,1.20
2023-02-28T13:32:06.626Z,0.90
2023-02-28T13:34:40.297Z,1.45
2023-02-28T13:37:22.301Z,1.20
2023-02-28T13:39:55.366Z,1.27
2023-02-28T13:42:38.310Z,1.65
2023-02-28T13:45:08.447Z,1.40
2023-02-28T13:47:44.599Z,0.82
2023-02-28T13:50:46.049Z,1.10
2023-02-28T13:53:15.900Z,1.38
2023-02-28T13:56:01.457Z,1.10
2023-02-28T13:58:42.500Z,1.23
2023-02-28T14:01:34.086Z,1.00
2023-02-28T14:04:35.060Z,1.15
2023-02-28T14:07:03.299Z,0.95
2023-02-28T14:09:36.781Z,1.15
2023-02-28T14:12:41.225Z,1.00
2023-02-28T14:15:26.832Z,1.67
2023-02-28T14:17:57.999Z,1.15
2023-02-28T14:20:28.654Z,1.10
2023-02-28T14:23:02.974Z,1.17
2023-02-28T14:25:49.278Z,0.90
2023-02-28T14:28:22.002Z,1.00
2023-02-28T14:31:12.598Z,1.13
2023-02-28T14:34:18.152Z,1.20
2023-02-28T14:36:46.100Z,1.08
2023-02-28T14:39:26.123Z,1.30
2023-02-28T14:41:53.199Z,1.17
2023-02-28T14:44:26.452Z,1.00
2023-02-28T14:47:05.311Z,0.93
2023-02-28T14:49:41.339Z,1.20
2023-02-28T14:52:17.980Z,1.10
2023-02-28T14:54:45.541Z,1.30
2023-02-28T14:57:24.361Z,1.20
2023-02-28T15:00:15.180Z,1.05
2023-02-28T15:02:42.527Z,1.30
2023-02-28T15:05:18.230Z,0.85
2023-02-28T15:07:46.215Z,0.90
2023-02-28T15:10:19.075Z,1.25
2023-02-28T15:12:54.488Z,1.10
2023-02-28T15:15:28.144Z,1.00
2023-02-28T15:18:06.347Z,1.13
2023-02-28T15:20:34.162Z,1.08
2023-02-28T15:23:01.544Z,1.08
2023-02-28T15:25:28.504Z,1.10
2023-02-28T15:27:57.236Z,1.27
2023-02-28T15:30:33.710Z,1.10
2023-02-28T15:33:19.127Z,1.20
2023-02-28T15:35:46.473Z,1.30
2023-02-28T15:38:16.452Z,1.20
2023-02-28T15:40:46.035Z,1.33
2023-02-28T15:43:24.151Z,0.90
2023-02-28T15:46:13.223Z,1.30
2023-02-28T15:48:56.403Z,1.30
2023-02-28T15:51:35.518Z,1.48
2023-02-28T15:54:08.839Z,1.48
2023-02-28T15:56:44.142Z,1.40
2023-02-28T15:59:18.958Z,1.10
2023-02-28T16:01:45.632Z,1.30
2023-02-28T16:04:18.110Z,1.33
2023-02-28T16:07:00.401Z,1.20
2023-02-28T16:09:28.516Z,1.15
2023-02-28T16:11:59.936Z,1.20
2023-02-28T16:14:28.663Z,1.25
2023-02-28T16:17:03.102Z,1.27
2023-02-28T16:19:31.166Z,1.35
2023-02-28T16:21:59.013Z,1.50
2023-02-28T16:24:25.648Z,1.80
2023-02-28T16:26:54.995Z,1.60
2023-02-28T16:29:30.786Z,1.65
2023-02-28T16:31:58.083Z,1.58
2023-02-28T16:34:25.097Z,1.83
2023-02-28T16:36:52.261Z,1.83
2023-02-28T16:39:21.993Z,1.75
2023-02-28T16:41:50.748Z,1.63
2023-02-28T16:47:19.091Z,1.65
2023-02-28T16:49:45.979Z,1.70
2023-02-28T16:52:13.309Z,1.63
2023-02-28T16:54:41.749Z,2.28
2023-02-28T16:57:22.285Z,1.92
2023-02-28T16:59:51.879Z,2.55
2023-02-28T17:02:23.660Z,2.08
2023-02-28T17:04:50.799Z,2.80
2023-02-28T17:07:18.059Z,2.47
2023-02-28T17:09:46.706Z,2.92
2023-02-28T17:12:13.624Z,2.40
2023-02-28T17:14:40.835Z,2.30
2023-02-28T17:17:08.205Z,2.10
2023-02-28T17:19:37.075Z,2.03
2023-02-28T17:22:04.270Z,1.90
2023-02-28T17:24:31.718Z,2.03
2023-02-28T17:26:59.052Z,2.47
2023-02-28T17:29:25.881Z,2.30
2023-02-28T17:31:52.853Z,2.27
2023-02-28T17:34:20.675Z,2.00
2023-02-28T17:36:49.058Z,1.90
2023-02-28T17:39:24.739Z,2.20
2023-02-28T17:41:55.967Z,2.17
2023-02-28T17:44:25.283Z,1.90
2023-02-28T17:46:53.133Z,2.00
2023-02-28T17:49:20.811Z,2.00
2023-02-28T17:51:48.534Z,1.90
2023-02-28T17:54:17.587Z,1.87
2023-02-28T17:56:45.202Z,3.27
2023-02-28T17:59:13.680Z,2.57
2023-02-28T18:01:40.434Z,2.37
2023-02-28T18:04:07.342Z,2.37
2023-02-28T18:06:50.832Z,2.27
2023-02-28T18:09:22.787Z,2.40
2023-02-28T18:11:55.576Z,2.10
2023-02-28T18:14:24.997Z,2.30
2023-02-28T18:16:52.805Z,1.97
2023-02-28T18:19:19.750Z,2.17
2023-02-28T18:21:51.065Z,2.00
2023-02-28T18:24:19.479Z,2.50
2023-02-28T18:26:47.262Z,2.50
2023-02-28T18:29:30.706Z,2.63
2023-02-28T18:31:58.091Z,2.63
2023-02-28T18:34:26.314Z,2.73
2023-02-28T18:37:11.405Z,2.63
2023-02-28T18:39:38.152Z,2.63
2023-02-28T18:42:07.582Z,2.80
2023-02-28T18:44:41.493Z,2.90
2023-02-28T18:47:12.173Z,2.90
2023-02-28T18:49:39.954Z,2.90
2023-02-28T18:52:09.371Z,2.57
2023-02-28T18:54:43.445Z,2.60
2023-02-28T18:57:11.219Z,2.77
2023-02-28T18:59:38.869Z,2.57
2023-02-28T19:02:05.470Z,2.63
2023-02-28T19:04:33.721Z,2.97
2023-02-28T19:07:00.309Z,2.87
2023-02-28T19:09:26.947Z,2.50
2023-02-28T19:11:54.274Z,2.90
2023-02-28T19:14:21.878Z,3.60
2023-02-28T19:16:50.123Z,3.60
2023-02-28T19:19:16.849Z,4.10
2023-02-28T19:21:43.651Z,4.57
2023-02-28T19:24:12.961Z,4.43
2023-02-28T19:26:41.639Z,5.60
2023-02-28T19:29:08.239Z,6.63
2023-02-28T19:31:35.213Z,6.93
2023-02-28T19:34:14.878Z,7.10
2023-02-28T19:36:41.624Z,12.70
2023-02-28T19:39:08.743Z,9.10
2023-02-28T19:41:36.094Z,9.67
2023-02-28T19:44:03.121Z,9.70
2023-02-28T19:46:30.461Z,8.97
2023-02-28T19:48:57.199Z,7.23
2023-02-28T19:51:25.858Z,6.80
2023-02-28T19:53:54.068Z,6.77
2023-02-28T19:56:21.173Z,6.07
2023-02-28T19:58:48.056Z,5.87
2023-02-28T20:01:19.099Z,6.70
2023-02-28T20:03:50.324Z,5.97
2023-02-28T20:06:18.704Z,7.83
2023-02-28T20:08:45.850Z,6.97
2023-02-28T20:11:15.549Z,5.40
2023-02-28T20:13:45.634Z,5.63
2023-02-28T20:16:14.063Z,5.00
2023-02-28T20:18:42.039Z,5.30
2023-02-28T20:21:10.313Z,4.40
2023-02-28T20:23:41.190Z,4.77
2023-02-28T20:26:09.959Z,4.00
2023-02-28T20:28:37.478Z,4.60
2023-02-28T20:31:11.263Z,4.13
2023-02-28T20:33:38.010Z,4.37
2023-02-28T20:36:10.103Z,4.80
2023-02-28T20:38:36.934Z,5.47
2023-02-28T20:41:04.346Z,5.00
2023-02-28T20:44:06.625Z,5.87
2023-02-28T20:46:34.728Z,6.27
2023-02-28T20:49:15.877Z,7.50
2023-02-28T20:51:53.976Z,8.70
2023-02-28T20:58:43.327Z,7.50
2023-02-28T21:01:21.482Z,8.13
2023-02-28T21:04:07.526Z,8.23
2023-02-28T21:10:36.362Z,7.87
2023-02-28T21:16:17.777Z,8.80
2023-02-28T21:18:51.082Z,7.63
2023-02-28T21:21:21.234Z,7.20
2023-02-28T21:23:50.190Z,8.00
2023-02-28T21:26:24.704Z,7.87
2023-02-28T21:28:59.899Z,13.90
2023-02-28T21:31:29.067Z,10.60
2023-02-28T21:33:57.387Z,11.80
2023-02-28T21:36:27.189Z,10.53
2023-02-28T21:39:04.461Z,7.80
2023-02-28T21:41:31.043Z,6.00
2023-02-28T21:43:57.808Z,5.83
2023-02-28T21:46:26.931Z,6.23
2023-02-28T21:48:54.462Z,6.47
2023-02-28T21:51:27.236Z,8.20
2023-02-28T21:53:54.152Z,7.60
2023-02-28T21:56:26.675Z,12.47
2023-02-28T21:59:03.348Z,8.10
2023-02-28T22:01:38.810Z,7.63
2023-02-28T22:04:08.056Z,5.10
2023-02-28T22:06:37.683Z,5.20
2023-02-28T22:09:06.847Z,4.60
2023-02-28T22:11:36.117Z,4.80
2023-02-28T22:14:03.078Z,5.53
2023-02-28T22:16:33.291Z,4.57
2023-02-28T22:19:08.218Z,4.87
2023-02-28T22:21:36.268Z,5.10
2023-02-28T22:24:03.983Z,5.10
2023-02-28T22:26:31.229Z,4.80
2023-02-28T22:28:58.382Z,4.80
2023-02-28T22:31:33.774Z,4.53
2023-02-28T22:34:04.567Z,5.13
2023-02-28T22:36:31.788Z,4.60
2023-02-28T22:39:00.639Z,4.33
2023-02-28T22:41:28.139Z,5.10
2023-02-28T22:43:57.470Z,5.47
2023-02-28T22:46:25.280Z,5.13
2023-02-28T22:48:51.973Z,5.23
2023-02-28T22:51:25.232Z,5.83
2023-02-28T22:53:53.682Z,4.87
2023-02-28T22:56:22.914Z,5.77
2023-02-28T22:58:52.996Z,5.47
2023-02-28T23:01:21.971Z,5.20
2023-02-28T23:03:48.807Z,6.27
2023-02-28T23:06:18.158Z,5.70
2023-02-28T23:08:45.253Z,5.77
2023-02-28T23:11:18.956Z,6.60
2023-02-28T23:13:58.355Z,5.80
2023-02-28T23:16:32.866Z,5.43
2023-02-28T23:19:01.392Z,6.20
2023-02-28T23:21:28.628Z,6.07
2023-02-28T23:23:55.707Z,6.37
2023-02-28T23:26:23.143Z,6.50
2023-02-28T23:28:50.187Z,5.93
2023-02-28T23:31:16.965Z,5.83
2023-02-28T23:33:43.618Z,5.80
2023-02-28T23:36:12.566Z,5.90
2023-02-28T23:38:40.709Z,5.50
2023-02-28T23:41:09.374Z,5.80
2023-02-28T23:43:36.600Z,6.27
2023-02-28T23:46:04.130Z,6.43
2023-02-28T23:48:30.973Z,6.00
2023-02-28T23:51:01.719Z,5.77
2023-02-28T23:53:30.929Z,5.50
2023-02-28T23:55:57.530Z,5.63
2023-02-28T23:58:24.144Z,5.87
